Time;durP1;ratioP1;P1;durP2;ratioP2;P2;SDS_P1;SDS_P2;PMS_P1;PMS_P2;Temp;Humidity;BMP_temperature;BMP_pressure;BME280_temperature;BME280_humidity;BME280_pressure;Samples;Min_cycle;Max_cycle;Signal;HPM_P1;HPM_P2
2023/07/16 00:02:23;;;;;;;2.57;1.80;;;20.00;99.90;;;;;;5048333;28;20189;-71
2023/07/16 00:04:48;;;;;;;2.93;2.10;;;20.00;99.90;;;;;;5051052;28;20181;-71
2023/07/16 00:07:14;;;;;;;3.00;1.70;;;19.90;99.90;;;;;;5051097;28;20539;-71
2023/07/16 00:09:40;;;;;;;2.30;2.10;;;19.90;99.90;;;;;;5051631;28;20524;-71
2023/07/16 00:12:06;;;;;;;2.33;1.90;;;20.00;99.90;;;;;;5051066;28;20185;-71
2023/07/16 00:14:31;;;;;;;3.40;1.90;;;20.10;99.90;;;;;;5051401;28;20284;-71
2023/07/16 00:16:58;;;;;;;4.60;2.40;;;20.00;99.90;;;;;;5051292;28;20527;-71
2023/07/16 00:19:23;;;;;;;3.00;2.00;;;20.00;99.90;;;;;;5051247;28;20185;-71
2023/07/16 00:21:49;;;;;;;3.40;1.87;;;19.90;99.90;;;;;;5051286;28;20523;-71
2023/07/16 00:24:15;;;;;;;2.40;1.87;;;20.00;99.90;;;;;;5050876;28;20193;-71
2023/07/16 00:26:40;;;;;;;3.17;1.70;;;20.00;99.90;;;;;;5050867;28;20248;-71
2023/07/16 00:29:06;;;;;;;2.10;1.90;;;19.80;99.90;;;;;;5050945;28;20178;-71
2023/07/16 00:31:31;;;;;;;3.07;2.20;;;19.80;99.90;;;;;;5051250;28;20182;-71
2023/07/16 00:33:57;;;;;;;3.83;1.90;;;19.80;99.90;;;;;;5050780;28;20192;-71
2023/07/16 00:36:23;;;;;;;2.67;1.77;;;19.80;99.90;;;;;;5050737;28;20197;-71
2023/07/16 00:38:50;;;;;;;4.40;2.10;;;19.80;99.90;;;;;;5051065;28;20619;-71
2023/07/16 00:41:16;;;;;;;4.63;2.20;;;19.80;99.90;;;;;;5051024;28;20192;-71
2023/07/16 00:43:42;;;;;;;3.60;1.90;;;19.80;99.90;;;;;;5050470;28;20546;-71
2023/07/16 00:46:08;;;;;;;4.00;2.10;;;19.80;99.90;;;;;;5050655;28;20554;-71
2023/07/16 00:48:34;;;;;;;3.73;1.90;;;19.80;99.90;;;;;;5050695;28;20186;-71
2023/07/16 00:51:02;;;;;;;2.50;2.00;;;19.80;99.90;;;;;;5050768;28;20421;-71
2023/07/16 00:53:28;;;;;;;2.43;1.70;;;19.80;99.90;;;;;;5050161;28;20419;-71
2023/07/16 00:55:54;;;;;;;2.13;1.93;;;19.80;99.90;;;;;;5049826;28;20815;-71
2023/07/16 00:58:20;;;;;;;2.20;1.83;;;19.90;99.90;;;;;;5049990;28;20415;-71
2023/07/16 01:00:46;;;;;;;2.40;2.20;;;19.80;99.90;;;;;;5050859;28;20264;-71
2023/07/16 01:03:13;;;;;;;2.20;2.00;;;19.80;99.90;;;;;;5050120;28;20631;-71
2023/07/16 01:05:44;;;;;;;4.07;1.80;;;19.80;99.90;;;;;;5050280;28;20241;-71
2023/07/16 01:08:11;;;;;;;3.27;2.10;;;19.80;99.90;;;;;;5050412;28;20928;-71
2023/07/16 01:10:41;;;;;;;2.40;2.20;;;19.70;99.90;;;;;;5050631;28;20419;-71
2023/07/16 01:13:07;;;;;;;3.40;2.20;;;19.60;99.90;;;;;;5049965;28;20416;-71
2023/07/16 01:15:33;;;;;;;5.13;2.00;;;19.60;99.90;;;;;;5050074;28;20427;-71
2023/07/16 01:17:58;;;;;;;3.63;1.80;;;19.60;99.90;;;;;;5050093;28;20268;-71
2023/07/16 01:20:25;;;;;;;2.60;2.30;;;19.50;99.90;;;;;;5050326;28;20174;-71
2023/07/16 01:23:32;;;;;;;2.33;2.00;;;19.50;99.90;;;;;;5049779;28;20234;-72
2023/07/16 01:26:13;;;;;;;3.60;1.90;;;19.30;99.90;;;;;;5047484;28;20828;-71
2023/07/16 01:29:06;;;;;;;3.63;2.00;;;19.30;99.90;;;;;;5052400;28;20417;-71
2023/07/16 01:31:33;;;;;;;2.63;1.77;;;19.20;99.90;;;;;;5049167;28;20435;-71
2023/07/16 01:34:00;;;;;;;3.17;1.57;;;19.20;99.90;;;;;;5049773;28;20408;-71
2023/07/16 01:36:28;;;;;;;2.70;1.93;;;19.20;99.90;;;;;;5049907;28;20439;-71
2023/07/16 01:38:53;;;;;;;3.57;2.13;;;19.20;99.90;;;;;;5050261;28;20412;-71
2023/07/16 01:41:19;;;;;;;2.70;2.33;;;19.20;99.90;;;;;;5050413;28;20976;-71
2023/07/16 01:43:45;;;;;;;3.10;2.10;;;19.20;99.90;;;;;;5049571;28;20208;-71
2023/07/16 01:46:11;;;;;;;3.03;2.40;;;19.10;99.90;;;;;;5050367;28;20249;-71
2023/07/16 01:48:38;;;;;;;2.83;2.00;;;19.10;99.90;;;;;;5049868;28;20174;-71
2023/07/16 01:51:04;;;;;;;3.20;2.00;;;19.10;99.90;;;;;;5050142;28;20423;-71
2023/07/16 01:53:31;;;;;;;4.70;2.70;;;19.10;99.90;;;;;;5049339;28;20412;-71
2023/07/16 01:55:57;;;;;;;4.07;2.23;;;19.00;99.90;;;;;;5047496;28;20428;-71
2023/07/16 01:58:23;;;;;;;6.50;2.27;;;19.10;99.90;;;;;;5049802;28;20927;-71
2023/07/16 02:00:50;;;;;;;4.37;2.00;;;19.10;99.90;;;;;;5049813;28;20420;-71
2023/07/16 02:03:16;;;;;;;2.47;1.97;;;19.00;99.90;;;;;;5049240;28;20264;-71
2023/07/16 02:05:41;;;;;;;3.70;1.90;;;19.00;99.90;;;;;;5049049;28;20551;-71
2023/07/16 02:08:07;;;;;;;2.53;1.77;;;18.90;99.90;;;;;;5049694;28;20215;-71
2023/07/16 02:10:33;;;;;;;2.50;2.30;;;19.00;99.90;;;;;;5048741;28;20228;-71
2023/07/16 02:12:58;;;;;;;3.43;2.07;;;18.90;99.90;;;;;;5049061;28;20228;-71
2023/07/16 02:15:24;;;;;;;3.20;2.23;;;18.90;99.90;;;;;;5048921;28;20205;-71
2023/07/16 02:17:50;;;;;;;2.50;1.93;;;18.90;99.90;;;;;;5049862;28;20712;-71
2023/07/16 02:20:16;;;;;;;3.33;1.70;;;18.90;99.90;;;;;;5049420;28;20189;-71
2023/07/16 02:22:42;;;;;;;5.23;1.80;;;18.90;99.90;;;;;;5051784;28;20467;-71
2023/07/16 02:25:08;;;;;;;2.80;1.77;;;18.90;99.90;;;;;;5048724;28;20285;-71
2023/07/16 02:27:33;;;;;;;5.03;1.97;;;18.90;99.90;;;;;;5049196;28;20720;-71
2023/07/16 02:29:59;;;;;;;2.47;1.90;;;18.90;99.90;;;;;;5049211;28;20182;-71
2023/07/16 02:32:25;;;;;;;4.30;2.07;;;19.00;99.90;;;;;;5046244;28;20602;-71
2023/07/16 02:34:50;;;;;;;5.13;2.30;;;19.00;99.90;;;;;;5048366;28;20217;-71
2023/07/16 02:37:16;;;;;;;5.40;1.90;;;19.10;99.90;;;;;;5049065;28;20615;-71
2023/07/16 02:39:45;;;;;;;2.63;2.10;;;19.10;99.90;;;;;;5049034;28;20182;-71
2023/07/16 02:42:10;;;;;;;3.27;2.10;;;19.10;99.90;;;;;;5048628;28;20209;-71
2023/07/16 02:44:44;;;;;;;5.27;2.27;;;19.10;99.90;;;;;;5048618;28;21115;-71
2023/07/16 02:47:10;;;;;;;5.00;2.83;;;19.20;99.90;;;;;;5049141;28;20217;-71
2023/07/16 02:49:36;;;;;;;6.70;2.50;;;19.20;99.90;;;;;;5048875;28;20424;-71
2023/07/16 02:52:02;;;;;;;4.13;2.70;;;19.20;99.90;;;;;;5048379;28;20959;-71
2023/07/16 02:54:28;;;;;;;3.67;3.10;;;19.20;99.90;;;;;;5048746;28;20182;-71
2023/07/16 02:56:53;;;;;;;3.10;2.30;;;19.20;99.90;;;;;;5046108;28;20554;-71
2023/07/16 02:59:19;;;;;;;4.77;3.00;;;19.20;99.90;;;;;;5048773;28;20189;-71
2023/07/16 03:01:45;;;;;;;4.00;2.10;;;19.30;99.90;;;;;;5048988;28;20188;-71
2023/07/16 03:04:10;;;;;;;3.17;2.20;;;19.30;99.90;;;;;;5048335;28;20186;-71
2023/07/16 03:06:36;;;;;;;3.87;2.27;;;19.30;99.90;;;;;;5048066;28;20232;-71
2023/07/16 03:09:02;;;;;;;8.70;2.30;;;19.30;99.90;;;;;;5048662;28;20280;-71
2023/07/16 03:11:28;;;;;;;3.57;2.13;;;19.30;99.90;;;;;;5048656;28;20553;-71
2023/07/16 03:13:53;;;;;;;3.73;1.80;;;19.30;99.90;;;;;;5048111;28;20428;-71
2023/07/16 03:16:19;;;;;;;3.63;2.47;;;19.30;99.90;;;;;;5048136;28;20200;-71
2023/07/16 03:18:45;;;;;;;5.00;2.73;;;19.30;99.90;;;;;;5048751;28;20184;-72
2023/07/16 03:21:12;;;;;;;7.47;2.40;;;19.30;99.90;;;;;;5048636;28;20551;-72
2023/07/16 03:23:37;;;;;;;4.17;2.23;;;19.30;99.90;;;;;;5052234;28;20411;-72
2023/07/16 03:26:03;;;;;;;6.03;2.23;;;19.20;99.90;;;;;;5050768;28;21010;-71
2023/07/16 03:28:29;;;;;;;3.60;1.80;;;19.20;99.90;;;;;;5062410;28;20181;-71
2023/07/16 03:30:55;;;;;;;8.90;2.30;;;19.20;99.90;;;;;;5072641;28;20406;-71
2023/07/16 03:33:21;;;;;;;5.07;2.20;;;19.20;99.90;;;;;;5063833;28;20595;-71
2023/07/16 03:35:48;;;;;;;2.90;1.77;;;19.20;99.90;;;;;;5051789;28;20563;-71
2023/07/16 03:38:14;;;;;;;3.70;1.90;;;19.10;99.90;;;;;;5052555;28;20185;-71
2023/07/16 03:40:43;;;;;;;2.67;2.07;;;19.00;99.90;;;;;;5052454;28;20800;-71
2023/07/16 03:43:08;;;;;;;4.37;2.00;;;18.90;99.90;;;;;;5052038;28;20412;-71
2023/07/16 03:45:34;;;;;;;4.93;2.47;;;18.80;99.90;;;;;;5051746;28;20974;-72
2023/07/16 03:48:00;;;;;;;6.40;2.30;;;18.80;99.90;;;;;;5052432;28;20182;-71
2023/07/16 03:50:25;;;;;;;4.00;2.10;;;18.70;99.90;;;;;;5051592;28;20189;-71
2023/07/16 03:52:51;;;;;;;5.60;2.00;;;18.70;99.90;;;;;;5051276;28;20189;-71
2023/07/16 03:55:17;;;;;;;2.77;2.07;;;18.60;99.90;;;;;;5050424;28;20177;-71
2023/07/16 03:57:42;;;;;;;3.33;2.20;;;18.60;99.90;;;;;;5051525;28;20948;-71
2023/07/16 04:00:09;;;;;;;4.87;2.20;;;18.60;99.90;;;;;;5052192;28;20178;-71
2023/07/16 04:02:35;;;;;;;7.60;2.37;;;18.60;99.90;;;;;;5051293;28;20189;-71
2023/07/16 04:05:02;;;;;;;2.90;2.03;;;18.60;99.90;;;;;;5051572;28;20416;-71
2023/07/16 04:07:28;;;;;;;3.87;2.17;;;18.50;99.90;;;;;;5051785;28;20460;-71
2023/07/16 04:09:54;;;;;;;6.30;2.20;;;18.60;99.90;;;;;;5052017;28;20963;-71
2023/07/16 04:12:20;;;;;;;5.17;2.00;;;18.50;99.90;;;;;;5051366;28;20412;-71
2023/07/16 04:14:47;;;;;;;2.63;2.30;;;18.40;99.90;;;;;;5051651;28;20267;-71
2023/07/16 04:17:13;;;;;;;3.30;2.30;;;18.40;99.90;;;;;;5051753;28;20201;-71
2023/07/16 04:19:39;;;;;;;3.57;2.30;;;18.50;99.90;;;;;;5053184;28;20444;-71
2023/07/16 04:22:05;;;;;;;4.40;2.20;;;18.40;99.90;;;;;;5050592;28;20424;-71
2023/07/16 04:24:31;;;;;;;6.90;2.00;;;18.50;99.90;;;;;;5051687;28;20547;-71
2023/07/16 04:26:58;;;;;;;2.67;2.30;;;18.40;99.90;;;;;;5051019;28;20706;-71
2023/07/16 04:29:24;;;;;;;3.17;1.90;;;18.40;99.90;;;;;;5051455;28;20264;-71
2023/07/16 04:31:49;;;;;;;2.70;1.93;;;18.40;99.90;;;;;;5051390;28;20503;-70
2023/07/16 04:34:15;;;;;;;3.70;2.40;;;18.50;99.90;;;;;;5050011;28;20235;-71
2023/07/16 04:36:43;;;;;;;2.60;2.00;;;18.40;99.90;;;;;;5051075;28;20201;-71
2023/07/16 04:39:08;;;;;;;3.13;2.30;;;18.40;99.90;;;;;;5051781;28;20983;-71
2023/07/16 04:41:34;;;;;;;3.50;2.73;;;18.30;99.90;;;;;;5051172;28;20423;-71
2023/07/16 04:44:00;;;;;;;3.10;2.30;;;18.30;99.90;;;;;;5050826;28;20527;-71
2023/07/16 04:46:25;;;;;;;4.60;2.40;;;18.40;99.90;;;;;;5050706;28;20702;-71
2023/07/16 04:48:51;;;;;;;4.83;2.00;;;18.30;99.90;;;;;;5051349;28;20698;-71
2023/07/16 04:51:17;;;;;;;5.97;2.63;;;18.30;99.90;;;;;;5053216;28;20189;-71
2023/07/16 04:53:43;;;;;;;5.70;2.13;;;18.40;99.90;;;;;;5050400;28;20190;-71
2023/07/16 04:56:15;;;;;;;8.00;2.97;;;18.30;99.90;;;;;;5050549;28;20200;-71
2023/07/16 04:58:41;;;;;;;4.83;2.60;;;18.30;99.90;;;;;;5050975;28;20185;-71
2023/07/16 05:01:08;;;;;;;4.87;2.63;;;18.40;99.90;;;;;;5048447;28;20464;-71
2023/07/16 05:03:34;;;;;;;4.63;2.30;;;18.30;99.90;;;;;;5050083;28;20428;-71
2023/07/16 05:06:01;;;;;;;3.33;2.37;;;18.30;99.90;;;;;;5045674;28;20467;-71
2023/07/16 05:08:26;;;;;;;5.90;2.43;;;18.40;99.90;;;;;;5050771;28;20925;-71
2023/07/16 05:10:52;;;;;;;3.10;2.03;;;18.50;99.90;;;;;;5050921;28;20450;-71
2023/07/16 05:13:18;;;;;;;4.67;2.50;;;18.60;99.90;;;;;;5049730;28;20182;-71
2023/07/16 05:15:44;;;;;;;6.50;2.43;;;18.60;99.90;;;;;;5046179;28;20236;-71
2023/07/16 05:18:10;;;;;;;3.10;2.23;;;18.60;99.90;;;;;;5046136;28;20264;-71
2023/07/16 05:20:35;;;;;;;5.10;3.43;;;18.60;99.90;;;;;;5053355;28;20856;-71
2023/07/16 05:23:01;;;;;;;6.40;2.90;;;18.70;99.90;;;;;;5049304;28;20277;-71
2023/07/16 05:25:27;;;;;;;3.70;2.73;;;18.80;99.90;;;;;;5049993;28;20217;-71
2023/07/16 05:27:52;;;;;;;7.17;2.43;;;18.80;99.90;;;;;;5049887;28;20178;-71
2023/07/16 05:30:18;;;;;;;5.67;2.50;;;18.80;99.90;;;;;;5048876;28;20192;-71
2023/07/16 05:32:44;;;;;;;8.77;2.80;;;18.80;99.90;;;;;;5049558;28;20181;-71
2023/07/16 05:35:10;;;;;;;5.10;2.77;;;18.80;99.90;;;;;;5049938;28;20201;-71
2023/07/16 05:37:35;;;;;;;5.40;3.00;;;18.80;99.90;;;;;;5049916;28;20675;-71
2023/07/16 05:40:03;;;;;;;5.00;2.50;;;18.90;99.90;;;;;;5050071;28;20646;-71
2023/07/16 05:42:28;;;;;;;5.60;2.83;;;18.90;99.90;;;;;;5049446;28;20542;-71
2023/07/16 05:44:54;;;;;;;4.17;3.00;;;18.90;99.90;;;;;;5049011;28;20405;-71
2023/07/16 05:47:20;;;;;;;4.63;2.63;;;18.90;99.90;;;;;;5049605;28;20217;-71
2023/07/16 05:49:46;;;;;;;5.70;2.60;;;18.90;99.90;;;;;;5049767;28;20206;-71
2023/07/16 05:52:11;;;;;;;4.93;2.67;;;19.00;99.90;;;;;;5049200;28;20523;-71
2023/07/16 05:54:37;;;;;;;5.03;2.77;;;19.00;99.90;;;;;;5049392;28;20273;-71
2023/07/16 05:57:03;;;;;;;6.77;3.00;;;18.90;99.90;;;;;;5048418;28;20208;-71
2023/07/16 05:59:29;;;;;;;6.93;3.10;;;19.00;99.90;;;;;;5048133;28;20185;-71
2023/07/16 06:01:57;;;;;;;5.23;2.80;;;19.00;99.90;;;;;;5049296;28;20268;-71
2023/07/16 06:04:23;;;;;;;5.50;2.93;;;19.20;99.90;;;;;;5049299;28;20547;-71
2023/07/16 06:06:49;;;;;;;9.13;3.17;;;19.30;99.90;;;;;;5048823;28;20462;-71
2023/07/16 06:09:14;;;;;;;6.17;3.57;;;19.50;99.90;;;;;;5049382;28;20182;-71
2023/07/16 06:11:40;;;;;;;7.67;3.60;;;19.70;99.90;;;;;;5049120;28;20242;-71
2023/07/16 06:14:06;;;;;;;6.30;3.47;;;19.80;99.90;;;;;;5049014;28;20246;-71
2023/07/16 06:16:31;;;;;;;6.60;3.60;;;19.90;99.90;;;;;;5049094;28;20201;-71
2023/07/16 06:18:57;;;;;;;5.30;3.50;;;20.00;99.90;;;;;;5047536;28;20212;-71
2023/07/16 06:21:23;;;;;;;7.23;3.37;;;20.00;99.90;;;;;;5049108;28;20182;-71
2023/07/16 06:23:48;;;;;;;8.17;3.50;;;20.10;99.90;;;;;;5048650;28;20208;-71
2023/07/16 06:26:14;;;;;;;5.50;3.40;;;20.10;99.90;;;;;;5048674;28;20244;-71
2023/07/16 06:28:40;;;;;;;8.97;3.80;;;19.90;99.90;;;;;;5059955;28;20238;-71
2023/07/16 06:31:05;;;;;;;4.93;3.10;;;19.90;99.90;;;;;;5068955;28;20256;-71
2023/07/16 06:33:31;;;;;;;6.23;3.13;;;19.90;99.90;;;;;;5068487;28;20196;-71
2023/07/16 06:35:56;;;;;;;6.57;3.80;;;20.00;99.90;;;;;;5068612;28;20224;-71
2023/07/16 06:38:22;;;;;;;9.73;4.60;;;20.10;99.90;;;;;;5067386;28;20184;-71
2023/07/16 06:40:49;;;;;;;6.17;3.77;;;20.10;99.90;;;;;;5052899;28;20231;-71
2023/07/16 06:43:16;;;;;;;6.17;4.20;;;20.10;99.90;;;;;;5048339;28;20185;-71
2023/07/16 06:45:42;;;;;;;6.03;3.60;;;20.20;99.90;;;;;;5048449;28;20912;-71
2023/07/16 06:48:08;;;;;;;7.03;4.17;;;20.20;99.90;;;;;;5048687;28;20420;-71
2023/07/16 06:50:34;;;;;;;6.20;4.57;;;20.20;99.90;;;;;;5048686;28;20772;-71
2023/07/16 06:52:59;;;;;;;7.80;3.80;;;20.30;99.90;;;;;;5047078;28;20177;-71
2023/07/16 06:55:25;;;;;;;6.80;4.30;;;20.40;99.90;;;;;;5047145;28;20658;-72
2023/07/16 06:57:51;;;;;;;6.00;4.30;;;20.40;99.90;;;;;;5047979;28;20178;-71
2023/07/16 07:00:16;;;;;;;6.00;4.50;;;20.50;99.90;;;;;;5047359;28;20646;-70
2023/07/16 07:02:42;;;;;;;6.60;4.53;;;20.70;99.90;;;;;;5048093;28;20185;-71
2023/07/16 07:05:08;;;;;;;6.70;4.60;;;20.90;99.90;;;;;;5048180;28;20416;-71
2023/07/16 07:07:34;;;;;;;7.60;4.83;;;21.10;99.90;;;;;;5048149;28;20228;-71
2023/07/16 07:10:00;;;;;;;9.80;5.00;;;21.00;99.90;;;;;;5048233;28;20189;-71
2023/07/16 07:12:25;;;;;;;7.10;4.30;;;21.10;99.90;;;;;;5048078;28;20185;-71
2023/07/16 07:14:51;;;;;;;17.73;4.53;;;21.20;99.90;;;;;;5048125;28;20881;-71
2023/07/16 07:17:17;;;;;;;7.43;4.37;;;21.30;99.90;;;;;;5048260;28;20251;-71
2023/07/16 07:19:43;;;;;;;5.30;4.20;;;21.30;99.90;;;;;;5047007;28;20178;-71
2023/07/16 07:22:08;;;;;;;5.40;3.50;;;21.30;99.90;;;;;;5047926;28;20442;-71
2023/07/16 07:24:34;;;;;;;6.97;3.97;;;21.30;99.90;;;;;;5047010;28;20412;-71
2023/07/16 07:27:00;;;;;;;6.50;4.03;;;21.10;99.90;;;;;;5045726;28;20593;-71
2023/07/16 07:29:26;;;;;;;6.90;4.23;;;21.10;99.90;;;;;;5045341;28;20185;-71
2023/07/16 07:31:52;;;;;;;9.73;5.10;;;21.10;99.90;;;;;;5044810;28;20193;-71
2023/07/16 07:34:18;;;;;;;9.60;4.93;;;20.90;99.90;;;;;;5045723;28;20192;-71
2023/07/16 07:36:44;;;;;;;9.47;4.37;;;20.80;99.90;;;;;;5050311;28;20452;-71
2023/07/16 07:39:10;;;;;;;8.43;4.40;;;21.00;99.90;;;;;;5043093;28;20185;-71
2023/07/16 07:41:36;;;;;;;8.00;4.83;;;21.00;99.90;;;;;;5046427;28;20182;-71
2023/07/16 07:44:01;;;;;;;7.77;5.37;;;21.10;99.90;;;;;;5045966;28;20865;-71
2023/07/16 07:46:27;;;;;;;8.23;4.40;;;21.30;99.90;;;;;;5045429;28;20690;-71
2023/07/16 07:48:53;;;;;;;6.90;5.27;;;21.30;99.70;;;;;;5047597;28;20209;-71
2023/07/16 07:51:20;;;;;;;5.77;4.23;;;21.40;99.50;;;;;;5048266;28;20561;-71
2023/07/16 07:53:46;;;;;;;5.57;4.13;;;21.50;99.90;;;;;;5047304;28;20466;-71
2023/07/16 07:56:11;;;;;;;7.97;4.00;;;21.60;99.70;;;;;;5045999;28;20451;-71
2023/07/16 07:58:37;;;;;;;7.70;4.87;;;21.60;99.50;;;;;;5048042;28;20248;-71
2023/07/16 08:01:07;;;;;;;6.30;4.50;;;21.70;99.00;;;;;;5046794;28;20232;-71
2023/07/16 08:03:33;;;;;;;6.53;4.43;;;21.70;99.40;;;;;;5038844;28;20550;-71
2023/07/16 08:05:59;;;;;;;7.77;4.23;;;21.70;98.90;;;;;;5046972;28;20864;-70
2023/07/16 08:08:25;;;;;;;6.43;4.57;;;21.70;98.90;;;;;;5049972;28;20515;-71
2023/07/16 08:10:50;;;;;;;6.30;4.00;;;21.70;98.90;;;;;;5054032;28;20254;-71
2023/07/16 08:13:16;;;;;;;6.73;4.30;;;21.60;98.60;;;;;;5052471;28;20302;-71
2023/07/16 08:15:42;;;;;;;5.70;4.63;;;21.50;99.40;;;;;;5055160;28;20213;-71
2023/07/16 08:18:07;;;;;;;6.00;4.70;;;21.30;98.90;;;;;;5054297;28;20213;-71
2023/07/16 08:20:35;;;;;;;6.40;4.57;;;21.20;99.20;;;;;;5055035;28;20872;-71
2023/07/16 08:23:00;;;;;;;8.93;4.40;;;21.00;98.80;;;;;;5054544;28;20224;-71
2023/07/16 08:25:26;;;;;;;8.90;5.37;;;20.90;99.50;;;;;;5054128;28;20440;-71
2023/07/16 08:27:52;;;;;;;6.93;4.50;;;21.00;99.70;;;;;;5057424;28;20583;-71
2023/07/16 08:30:18;;;;;;;6.60;3.90;;;21.10;98.90;;;;;;5048636;28;20451;-70
2023/07/16 08:32:43;;;;;;;6.00;4.40;;;21.10;98.90;;;;;;5046654;28;20218;-71
2023/07/16 08:35:16;;;;;;;6.50;4.50;;;21.10;99.00;;;;;;5051269;28;20617;-70
2023/07/16 08:37:42;;;;;;;6.73;4.80;;;21.10;99.30;;;;;;5054116;28;20214;-71
2023/07/16 08:40:09;;;;;;;7.40;5.40;;;21.20;99.20;;;;;;5051321;28;20491;-71
2023/07/16 08:42:37;;;;;;;9.73;4.30;;;21.20;98.70;;;;;;5049594;28;20475;-71
2023/07/16 08:45:08;;;;;;;6.47;4.90;;;21.10;98.90;;;;;;5049655;28;20440;-71
2023/07/16 08:47:35;;;;;;;6.27;3.73;;;21.20;98.80;;;;;;5050889;28;20586;-71
2023/07/16 08:50:01;;;;;;;5.87;4.60;;;21.20;98.90;;;;;;5048753;28;20452;-71
2023/07/16 08:52:28;;;;;;;4.30;3.73;;;21.10;99.10;;;;;;5051727;28;20536;-71
2023/07/16 08:54:54;;;;;;;7.67;5.37;;;21.00;99.60;;;;;;5048733;28;20855;-70
2023/07/16 08:57:21;;;;;;;5.77;4.07;;;21.00;99.30;;;;;;5049641;28;20566;-71
2023/07/16 08:59:51;;;;;;;8.67;4.40;;;21.20;99.20;;;;;;5050254;28;20428;-71
2023/07/16 09:02:21;;;;;;;6.83;3.77;;;21.20;98.70;;;;;;5048872;28;20455;-71
2023/07/16 09:04:51;;;;;;;7.27;4.40;;;21.20;99.10;;;;;;5048316;28;20486;-71
2023/07/16 09:07:17;;;;;;;5.43;4.00;;;21.30;99.20;;;;;;5049814;28;20984;-71
2023/07/16 09:09:43;;;;;;;5.67;3.80;;;21.40;98.90;;;;;;5051008;28;20444;-71
2023/07/16 09:12:12;;;;;;;4.63;3.90;;;21.50;98.40;;;;;;5048718;28;20221;-71
2023/07/16 09:14:40;;;;;;;6.03;4.50;;;21.60;98.30;;;;;;5049504;28;20288;-72
2023/07/16 09:17:06;;;;;;;4.87;3.60;;;21.80;98.70;;;;;;5048251;28;20461;-72
2023/07/16 09:19:32;;;;;;;6.93;4.50;;;21.90;98.90;;;;;;5051400;28;20467;-71
2023/07/16 09:21:58;;;;;;;7.30;4.00;;;21.90;98.10;;;;;;5051075;28;20197;-71
2023/07/16 09:24:24;;;;;;;4.37;3.90;;;21.90;97.90;;;;;;5049058;28;20450;-71
2023/07/16 09:26:53;;;;;;;6.80;4.30;;;21.80;98.10;;;;;;5047163;28;20699;-71
2023/07/16 09:29:20;;;;;;;7.30;3.63;;;21.90;98.10;;;;;;5049557;28;20570;-72
2023/07/16 09:32:00;;;;;;;4.90;3.63;;;21.90;96.90;;;;;;5045346;28;20479;-71
2023/07/16 09:34:29;;;;;;;6.37;3.73;;;21.70;97.70;;;;;;5051102;28;20427;-71
2023/07/16 09:36:59;;;;;;;6.40;4.17;;;21.70;97.30;;;;;;5045988;28;20448;-72
2023/07/16 09:39:26;;;;;;;4.60;3.30;;;21.70;97.00;;;;;;5048270;28;20456;-71
2023/07/16 09:41:52;;;;;;;10.40;4.17;;;21.80;97.40;;;;;;5049555;28;20542;-71
2023/07/16 09:44:19;;;;;;;6.33;3.63;;;22.00;97.30;;;;;;5047665;28;20523;-72
2023/07/16 09:46:46;;;;;;;6.83;4.13;;;22.10;96.90;;;;;;5050572;28;20468;-72
2023/07/16 09:49:14;;;;;;;5.90;4.13;;;22.20;96.60;;;;;;5051644;28;20432;-71
2023/07/16 09:51:39;;;;;;;8.93;4.00;;;22.40;97.10;;;;;;5049403;28;20467;-72
2023/07/16 09:54:06;;;;;;;6.37;3.60;;;22.40;96.30;;;;;;5048661;28;20802;-72
2023/07/16 09:56:41;;;;;;;6.57;3.70;;;22.50;96.10;;;;;;5047445;28;20217;-72
2023/07/16 09:59:11;;;;;;;7.33;3.87;;;22.60;96.10;;;;;;5048141;28;20454;-72
2023/07/16 10:01:40;;;;;;;6.57;4.60;;;22.70;96.20;;;;;;5046575;28;20451;-72
2023/07/16 10:04:19;;;;;;;6.70;4.17;;;22.80;96.60;;;;;;5043794;28;20460;-72
2023/07/16 10:07:00;;;;;;;3.90;3.50;;;22.80;96.10;;;;;;5044562;28;20467;-70
2023/07/16 10:09:50;;;;;;;6.40;3.80;;;22.80;96.50;;;;;;5046975;28;20524;-70
2023/07/16 10:12:18;;;;;;;6.40;3.43;;;22.80;95.10;;;;;;5064612;28;20455;-70
2023/07/16 10:14:44;;;;;;;8.90;3.90;;;22.90;96.00;;;;;;5048375;28;20452;-70
2023/07/16 10:17:30;;;;;;;9.23;3.80;;;22.90;95.50;;;;;;5046013;28;20467;-70
2023/07/16 10:20:12;;;;;;;7.10;4.23;;;22.80;95.40;;;;;;5047425;28;20808;-70
2023/07/16 10:22:43;;;;;;;6.77;4.50;;;22.90;96.80;;;;;;5044634;28;20447;-70
2023/07/16 10:25:18;;;;;;;4.97;3.47;;;22.80;95.60;;;;;;5047224;28;20435;-71
2023/07/16 10:27:47;;;;;;;6.10;3.90;;;22.90;95.60;;;;;;5046166;28;20470;-71
2023/07/16 10:30:14;;;;;;;6.53;4.00;;;22.70;95.90;;;;;;5049610;28;20804;-71
2023/07/16 10:32:39;;;;;;;6.80;3.70;;;22.80;95.50;;;;;;5052935;28;20451;-70
2023/07/16 10:35:10;;;;;;;4.80;3.33;;;22.80;95.40;;;;;;5048670;28;20504;-70
2023/07/16 10:37:36;;;;;;;6.10;3.50;;;22.80;95.30;;;;;;5040135;28;20464;-71
2023/07/16 10:40:04;;;;;;;5.40;3.90;;;23.00;95.20;;;;;;5047353;28;20455;-71
2023/07/16 10:42:30;;;;;;;7.70;4.10;;;23.20;95.00;;;;;;5043936;28;20459;-71
2023/07/16 10:45:01;;;;;;;7.00;3.83;;;23.10;95.10;;;;;;5046824;28;20452;-71
2023/07/16 10:47:38;;;;;;;5.80;3.57;;;23.00;95.60;;;;;;5044471;28;20851;-71
2023/07/16 10:50:08;;;;;;;4.23;3.33;;;22.90;95.00;;;;;;5047561;28;20443;-71
2023/07/16 10:52:36;;;;;;;4.20;3.13;;;22.90;96.10;;;;;;5046554;28;20494;-70
2023/07/16 10:55:02;;;;;;;6.30;3.30;;;22.90;95.50;;;;;;5047773;28;20436;-71
2023/07/16 10:57:28;;;;;;;7.13;3.50;;;23.10;95.20;;;;;;5042611;28;20483;-71
2023/07/16 10:59:56;;;;;;;3.43;2.90;;;23.20;95.00;;;;;;5043302;28;20957;-71
2023/07/16 11:02:24;;;;;;;5.33;3.40;;;23.30;95.10;;;;;;5046703;28;20209;-72
2023/07/16 11:04:53;;;;;;;4.53;3.50;;;23.40;95.10;;;;;;5047092;28;20455;-72
2023/07/16 11:07:19;;;;;;;5.87;2.87;;;23.50;94.80;;;;;;5045605;28;20546;-72
2023/07/16 11:09:50;;;;;;;4.47;3.07;;;23.50;94.10;;;;;;5051113;28;20519;-72
2023/07/16 11:12:19;;;;;;;4.73;2.90;;;23.70;94.00;;;;;;5044641;28;20536;-71
2023/07/16 11:14:46;;;;;;;3.67;2.83;;;23.60;94.40;;;;;;5047594;28;20428;-71
2023/07/16 11:17:13;;;;;;;7.23;3.80;;;23.60;94.00;;;;;;5048444;28;20440;-71
2023/07/16 11:19:40;;;;;;;10.83;3.77;;;23.60;94.00;;;;;;5048440;28;20423;-71
2023/07/16 11:22:07;;;;;;;7.60;3.50;;;23.50;94.30;;;;;;5044989;28;20877;-71
2023/07/16 11:24:48;;;;;;;4.00;3.07;;;23.60;94.80;;;;;;5050166;28;20975;-71
2023/07/16 11:27:14;;;;;;;3.40;3.10;;;23.80;94.50;;;;;;5061596;28;20475;-71
2023/07/16 11:29:45;;;;;;;3.43;3.10;;;23.90;94.70;;;;;;5044486;28;20420;-71
2023/07/16 11:32:10;;;;;;;5.17;3.20;;;24.00;94.40;;;;;;5044437;28;20986;-71
2023/07/16 11:34:36;;;;;;;10.23;3.73;;;24.10;93.70;;;;;;5044783;28;20424;-71
2023/07/16 11:37:11;;;;;;;5.07;3.50;;;24.00;93.10;;;;;;5044763;28;20217;-71
2023/07/16 11:39:37;;;;;;;5.47;3.10;;;24.00;93.60;;;;;;5045427;28;20940;-71
2023/07/16 11:42:04;;;;;;;7.20;3.33;;;23.80;93.70;;;;;;5043371;28;20420;-71
2023/07/16 11:44:34;;;;;;;4.00;3.00;;;23.80;94.40;;;;;;5048871;28;20420;-71
2023/07/16 11:47:00;;;;;;;6.90;3.70;;;23.80;94.60;;;;;;5049091;28;21240;-71
2023/07/16 11:49:26;;;;;;;5.30;3.77;;;24.00;93.70;;;;;;5047760;28;20426;-71
2023/07/16 11:51:51;;;;;;;6.30;3.50;;;24.00;93.50;;;;;;5049354;28;20428;-71
2023/07/16 11:54:17;;;;;;;3.40;3.00;;;24.00;93.30;;;;;;5048863;28;20217;-71
2023/07/16 11:56:43;;;;;;;5.90;3.37;;;23.90;92.90;;;;;;5047016;28;20682;-71
2023/07/16 11:59:08;;;;;;;4.90;3.27;;;23.70;93.10;;;;;;5067409;28;20197;-71
2023/07/16 12:01:34;;;;;;;4.67;3.27;;;23.60;93.30;;;;;;5049261;28;20197;-71
2023/07/16 12:04:02;;;;;;;4.60;3.40;;;23.50;93.70;;;;;;5048026;28;20194;-72
2023/07/16 12:06:28;;;;;;;5.47;3.53;;;23.40;94.20;;;;;;5050436;28;20221;-71
2023/07/16 12:08:55;;;;;;;5.80;3.67;;;23.40;94.00;;;;;;5046721;28;20968;-71
2023/07/16 12:11:21;;;;;;;4.87;3.10;;;23.20;94.00;;;;;;5051245;28;20178;-72
2023/07/16 12:13:47;;;;;;;7.57;3.73;;;23.20;94.20;;;;;;5051114;28;20795;-71
2023/07/16 12:16:13;;;;;;;6.00;3.40;;;23.20;95.30;;;;;;5050942;28;20440;-72
2023/07/16 12:18:39;;;;;;;4.67;3.10;;;23.20;95.30;;;;;;5051215;28;20760;-71
2023/07/16 12:21:06;;;;;;;4.80;3.50;;;23.20;94.50;;;;;;5051101;28;20240;-71
2023/07/16 12:23:31;;;;;;;6.43;3.40;;;23.20;94.40;;;;;;5049489;28;20697;-71
2023/07/16 12:25:57;;;;;;;8.40;3.23;;;23.20;94.50;;;;;;5050619;28;20630;-71
2023/07/16 12:28:23;;;;;;;4.70;3.33;;;23.30;94.80;;;;;;5052179;28;20186;-72
2023/07/16 12:30:48;;;;;;;3.43;2.87;;;23.30;94.40;;;;;;5050914;28;20198;-71
2023/07/16 12:33:14;;;;;;;4.47;3.30;;;23.20;94.10;;;;;;5050454;28;20182;-71
2023/07/16 12:35:40;;;;;;;6.03;4.10;;;23.20;94.50;;;;;;5050684;28;20200;-71
2023/07/16 12:38:05;;;;;;;7.27;3.37;;;23.30;94.20;;;;;;5049527;28;20193;-71
2023/07/16 12:40:31;;;;;;;5.10;3.40;;;23.20;94.40;;;;;;5050778;28;20200;-71
2023/07/16 12:42:57;;;;;;;4.77;3.50;;;23.20;94.80;;;;;;5050338;28;20194;-71
2023/07/16 12:45:22;;;;;;;7.33;3.73;;;23.30;94.90;;;;;;5050273;28;20185;-71